Time;durP1;ratioP1;P1;durP2;ratioP2;P2;SDS_P1;SDS_P2;PMS_P1;PMS_P2;Temp;Humidity;BMP_temperature;BMP_pressure;BME280_temperature;BME280_humidity;BME280_pressure;Samples;Min_cycle;Max_cycle;Signal;HPM_P1;HPM_P2
2022/04/12 00:00:45;;;;;;;29.27;15.03;;;;;;;1.46;100.00;100399.66;4189979;28;22337;-64
2022/04/12 00:03:12;;;;;;;29.13;15.23;;;;;;;1.41;100.00;100397.28;4182906;28;20286;-68
2022/04/12 00:05:40;;;;;;;31.57;16.33;;;;;;;1.32;100.00;100407.47;4193727;28;25895;-67
2022/04/12 00:08:07;;;;;;;29.03;15.83;;;;;;;1.20;100.00;100409.84;4178748;28;23032;-62
2022/04/12 00:10:33;;;;;;;28.40;15.03;;;;;;;1.22;100.00;100402.72;4175172;28;20269;-65
2022/04/12 00:13:00;;;;;;;30.10;15.33;;;;;;;1.15;100.00;100404.00;4173363;28;20260;-64
2022/04/12 00:15:27;;;;;;;35.47;16.37;;;;;;;1.11;100.00;100401.66;4185994;28;20324;-65
2022/04/12 00:20:40;;;;;;;34.57;16.23;;;;;;;1.01;100.00;100409.19;4174908;28;20892;-66
2022/04/12 00:23:06;;;;;;;33.43;16.90;;;;;;;1.01;100.00;100410.00;4173917;28;20778;-63
2022/04/12 00:25:33;;;;;;;33.47;15.93;;;;;;;0.95;100.00;100412.13;4185091;28;21798;-64
2022/04/12 00:28:00;;;;;;;31.17;16.13;;;;;;;0.89;100.00;100405.47;4195945;28;21172;-66
2022/04/12 00:30:27;;;;;;;35.50;16.47;;;;;;;0.80;100.00;100411.19;4197960;28;20633;-66
2022/04/12 00:32:56;;;;;;;30.50;16.50;;;;;;;0.75;100.00;100408.81;4198639;28;20233;-66
2022/04/12 00:35:24;;;;;;;29.93;16.97;;;;;;;0.67;100.00;100408.38;4199489;28;20232;-67
2022/04/12 00:37:51;;;;;;;33.97;16.87;;;;;;;0.68;100.00;100412.69;4189304;28;21333;-67
2022/04/12 00:40:18;;;;;;;32.60;17.03;;;;;;;0.67;100.00;100400.50;4192698;28;25557;-64
2022/04/12 00:42:52;;;;;;;32.53;16.90;;;;;;;0.68;100.00;100406.59;4192224;28;20237;-64
2022/04/12 00:45:19;;;;;;;34.63;16.47;;;;;;;0.69;100.00;100409.13;4198914;28;20384;-65
2022/04/12 00:47:46;;;;;;;37.77;17.10;;;;;;;0.62;100.00;100402.53;4180578;28;20232;-64
2022/04/12 00:50:13;;;;;;;33.17;16.87;;;;;;;0.55;100.00;100401.19;4188194;28;25159;-66
2022/04/12 00:52:42;;;;;;;34.93;17.00;;;;;;;0.55;100.00;100399.41;4218625;28;20233;-64
2022/04/12 00:55:09;;;;;;;37.60;17.23;;;;;;;0.57;100.00;100409.81;4186727;28;20237;-66
2022/04/12 00:57:36;;;;;;;30.00;16.13;;;;;;;0.47;100.00;100403.34;4202876;28;20233;-66
2022/04/12 01:00:06;;;;;;;33.43;17.10;;;;;;;0.59;100.00;100400.09;4179634;28;20407;-68
2022/04/12 01:02:33;;;;;;;33.17;16.37;;;;;;;0.55;100.00;100407.25;4187921;28;20375;-65
2022/04/12 01:05:03;;;;;;;31.07;15.90;;;;;;;0.65;100.00;100406.78;4187848;28;20237;-64
2022/04/12 01:07:30;;;;;;;33.63;16.67;;;;;;;0.68;100.00;100411.84;4179455;28;20229;-67
2022/04/12 01:09:58;;;;;;;28.63;16.13;;;;;;;0.66;100.00;100416.34;4183924;28;22791;-67
2022/04/12 01:12:28;;;;;;;33.73;16.17;;;;;;;0.75;100.00;100414.06;4182771;28;20229;-64
2022/04/12 01:15:19;;;;;;;33.33;16.33;;;;;;;0.84;100.00;100413.56;4196780;28;20243;-67
2022/04/12 01:17:46;;;;;;;33.30;16.27;;;;;;;0.73;100.00;100421.16;4180512;28;20689;-66
2022/04/12 01:20:14;;;;;;;34.73;17.03;;;;;;;0.79;100.00;100415.56;4197837;28;20304;-65
2022/04/12 01:22:54;;;;;;;33.57;16.53;;;;;;;0.81;100.00;100413.72;4188779;28;22292;-65
2022/04/12 01:25:22;;;;;;;32.40;16.13;;;;;;;0.77;100.00;100417.44;4193637;28;20331;-66
2022/04/12 01:27:49;;;;;;;34.97;17.30;;;;;;;0.73;100.00;100415.06;4175448;28;20763;-66
2022/04/12 01:30:15;;;;;;;34.87;16.43;;;;;;;0.87;100.00;100417.78;4184285;28;20956;-64
2022/04/12 01:32:42;;;;;;;33.63;15.93;;;;;;;0.86;100.00;100420.47;4202671;28;20310;-65
2022/04/12 01:35:09;;;;;;;31.67;16.10;;;;;;;0.89;100.00;100420.31;4191230;28;20236;-67
2022/04/12 01:37:35;;;;;;;33.33;17.43;;;;;;;0.90;100.00;100422.00;4195776;28;20240;-67
2022/04/12 01:40:04;;;;;;;35.67;16.30;;;;;;;0.88;100.00;100418.63;4182358;28;22281;-67
2022/04/12 01:42:30;;;;;;;28.10;15.40;;;;;;;0.89;100.00;100426.41;4190476;28;20237;-64
2022/04/12 01:44:56;;;;;;;36.23;16.67;;;;;;;0.83;100.00;100422.34;4192951;28;25630;-66
2022/04/12 01:47:23;;;;;;;32.77;16.13;;;;;;;0.88;100.00;100423.88;4179666;28;21801;-68
2022/04/12 01:49:50;;;;;;;33.00;16.67;;;;;;;0.86;100.00;100430.97;4175587;28;20332;-66
2022/04/12 01:52:16;;;;;;;35.80;17.53;;;;;;;0.83;100.00;100427.56;4179499;28;20334;-66
2022/04/12 01:54:43;;;;;;;34.70;16.73;;;;;;;0.78;100.00;100426.97;4190631;28;21616;-64
2022/04/12 01:57:09;;;;;;;29.90;16.27;;;;;;;0.81;100.00;100433.81;4184356;28;20232;-65
2022/04/12 01:59:36;;;;;;;35.27;17.73;;;;;;;0.75;100.00;100437.63;4189507;28;20395;-64
2022/04/12 02:02:02;;;;;;;33.50;16.97;;;;;;;0.77;100.00;100437.53;4181354;28;21548;-64
2022/04/12 02:04:29;;;;;;;39.23;18.10;;;;;;;0.83;100.00;100429.34;4179779;28;21219;-64
2022/04/12 02:06:55;;;;;;;35.63;16.23;;;;;;;0.87;99.75;100435.25;4192721;28;20233;-65
2022/04/12 02:09:22;;;;;;;36.00;18.30;;;;;;;0.57;99.86;100436.81;4189431;28;20402;-67
2022/04/12 02:11:48;;;;;;;37.30;18.73;;;;;;;0.57;100.00;100439.44;4191319;28;20237;-67
2022/04/12 02:14:15;;;;;;;42.20;19.20;;;;;;;0.49;100.00;100432.91;4196468;28;20379;-65
2022/04/12 02:16:41;;;;;;;37.00;19.50;;;;;;;0.46;100.00;100443.56;4201939;28;20319;-66
2022/04/12 02:19:08;;;;;;;44.30;19.13;;;;;;;0.39;100.00;100441.25;4197188;28;21928;-66
2022/04/12 02:21:34;;;;;;;40.53;20.00;;;;;;;0.25;100.00;100438.50;4196944;28;20241;-63
2022/04/12 02:24:01;;;;;;;38.33;19.77;;;;;;;0.30;100.00;100439.09;4197093;28;20241;-66
2022/04/12 02:26:27;;;;;;;39.83;20.40;;;;;;;0.47;100.00;100440.00;4195970;28;20252;-67
2022/04/12 02:28:54;;;;;;;38.23;19.77;;;;;;;0.30;100.00;100440.88;4177468;28;22913;-66
2022/04/12 02:31:21;;;;;;;43.33;21.47;;;;;;;0.08;100.00;100443.78;4174646;28;22234;-64
2022/04/12 02:33:47;;;;;;;45.00;22.50;;;;;;;0.05;100.00;100449.13;4187895;28;21568;-63
2022/04/12 02:36:14;;;;;;;47.80;22.93;;;;;;;-0.04;100.00;100450.47;4190509;28;20236;-65
2022/04/12 02:38:41;;;;;;;40.37;22.03;;;;;;;-0.12;100.00;100453.44;4200450;28;20251;-65
2022/04/12 02:41:08;;;;;;;45.63;23.50;;;;;;;-0.09;100.00;100455.94;4189748;28;21728;-66
2022/04/12 02:43:35;;;;;;;55.13;24.77;;;;;;;-0.23;100.00;100455.78;4190346;28;20492;-66
2022/04/12 02:46:02;;;;;;;44.30;22.73;;;;;;;-0.29;100.00;100456.06;4188928;28;24014;-63
2022/04/12 02:48:29;;;;;;;46.57;23.60;;;;;;;-0.16;100.00;100462.38;4176530;28;20693;-63
2022/04/12 02:50:55;;;;;;;44.43;23.73;;;;;;;-0.20;100.00;100466.06;4175962;28;20224;-64
2022/04/12 02:53:22;;;;;;;50.50;25.40;;;;;;;-0.21;100.00;100467.00;4189078;28;20307;-63
2022/04/12 02:55:48;;;;;;;55.10;25.67;;;;;;;-0.21;100.00;100469.63;4187301;28;20235;-66
2022/04/12 02:58:15;;;;;;;52.83;26.27;;;;;;;-0.25;100.00;100465.44;4171893;28;20283;-66
2022/04/12 03:00:41;;;;;;;51.10;25.93;;;;;;;-0.33;100.00;100462.34;4191151;28;20367;-68
2022/04/12 03:03:08;;;;;;;51.63;25.10;;;;;;;-0.31;100.00;100463.13;4176652;28;20234;-66
2022/04/12 03:05:34;;;;;;;46.67;24.00;;;;;;;-0.21;100.00;100467.00;4180559;28;20242;-68
2022/04/12 03:08:01;;;;;;;44.77;23.83;;;;;;;-0.14;100.00;100470.13;4180390;28;22486;-68
2022/04/12 03:10:31;;;;;;;48.93;25.63;;;;;;;-0.19;100.00;100466.91;4193277;28;22539;-64
2022/04/12 03:12:57;;;;;;;52.73;26.73;;;;;;;-0.24;100.00;100469.75;4179509;28;20313;-64
2022/04/12 03:15:24;;;;;;;54.53;25.50;;;;;;;-0.25;100.00;100465.44;4176505;28;20233;-65
2022/04/12 03:17:51;;;;;;;56.63;26.43;;;;;;;-0.32;100.00;100469.28;4195742;28;20285;-66
2022/04/12 03:20:17;;;;;;;52.10;26.17;;;;;;;-0.39;100.00;100475.75;4179056;28;20240;-65
2022/04/12 03:22:44;;;;;;;50.10;25.50;;;;;;;-0.29;100.00;100476.97;4156882;28;20326;-65
2022/04/12 03:25:10;;;;;;;49.83;26.17;;;;;;;-0.33;100.00;100478.03;4173025;28;20268;-68
2022/04/12 03:27:37;;;;;;;60.77;29.13;;;;;;;-0.52;100.00;100481.53;4194729;28;20300;-67
2022/04/12 03:30:04;;;;;;;49.83;27.30;;;;;;;-0.41;100.00;100483.66;4179942;28;22134;-63
2022/04/12 03:32:31;;;;;;;57.20;27.83;;;;;;;-0.51;100.00;100472.78;4193698;28;20389;-68
2022/04/12 03:34:57;;;;;;;57.33;28.07;;;;;;;-0.52;100.00;100481.53;4182213;28;20268;-66
2022/04/12 03:37:24;;;;;;;60.70;29.93;;;;;;;-0.60;100.00;100475.00;4192696;28;20232;-64
2022/04/12 03:39:51;;;;;;;61.57;30.57;;;;;;;-0.65;100.00;100481.28;4171259;28;20303;-66
2022/04/12 03:42:18;;;;;;;61.83;30.17;;;;;;;-0.67;100.00;100479.66;4177288;28;22705;-65
2022/04/12 03:44:45;;;;;;;57.43;29.90;;;;;;;-0.67;100.00;100477.88;4173499;28;20344;-66
2022/04/12 03:47:12;;;;;;;57.17;29.77;;;;;;;-0.59;100.00;100474.91;4168492;28;21078;-68
2022/04/12 03:49:38;;;;;;;71.23;33.70;;;;;;;-0.62;100.00;100475.06;4194840;28;23064;-66
2022/04/12 03:52:05;;;;;;;65.70;32.13;;;;;;;-0.59;100.00;100479.28;4198993;28;20236;-67
2022/04/12 03:54:32;;;;;;;65.03;32.63;;;;;;;-0.62;100.00;100484.69;4199776;28;20241;-66
2022/04/12 03:56:58;;;;;;;64.07;31.93;;;;;;;-0.64;100.00;100477.75;4187538;28;23535;-67
2022/04/12 03:59:25;;;;;;;63.27;31.93;;;;;;;-0.56;100.00;100484.38;4191407;28;20245;-63
2022/04/12 04:01:51;;;;;;;64.30;32.53;;;;;;;-0.63;100.00;100483.84;4212941;28;21345;-66
2022/04/12 04:04:18;;;;;;;64.37;32.50;;;;;;;-0.60;100.00;100488.91;4148369;28;20856;-66
2022/04/12 04:06:45;;;;;;;64.97;33.40;;;;;;;-0.59;100.00;100495.81;4213106;28;20249;-67
2022/04/12 04:09:12;;;;;;;72.23;35.20;;;;;;;-0.50;100.00;100497.16;4211158;28;20744;-63
2022/04/12 04:11:38;;;;;;;69.27;35.00;;;;;;;-0.45;100.00;100497.78;4213576;28;20240;-64
2022/04/12 04:14:06;;;;;;;71.13;35.07;;;;;;;-0.39;100.00;100507.13;4177013;28;20292;-66
2022/04/12 04:16:33;;;;;;;69.70;34.20;;;;;;;-0.31;100.00;100504.97;4187656;28;20228;-65
2022/04/12 04:18:59;;;;;;;68.23;35.93;;;;;;;-0.34;100.00;100505.13;4190392;28;20343;-65
2022/04/12 04:21:26;;;;;;;68.57;35.73;;;;;;;-0.26;100.00;100502.97;4202713;28;20248;-67
2022/04/12 04:23:52;;;;;;;70.23;34.07;;;;;;;-0.26;100.00;100510.81;4171936;28;20281;-63
2022/04/12 04:26:19;;;;;;;65.63;33.90;;;;;;;-0.47;100.00;100508.31;4173176;28;20340;-66
2022/04/12 04:28:48;;;;;;;71.43;34.90;;;;;;;-0.53;100.00;100506.00;4167765;28;20238;-65
2022/04/12 04:31:15;;;;;;;72.03;34.77;;;;;;;-0.51;100.00;100504.16;4181439;28;20326;-64
2022/04/12 04:33:46;;;;;;;77.80;36.40;;;;;;;-0.54;100.00;100508.66;4178819;28;20722;-63
2022/04/12 04:36:13;;;;;;;71.00;34.60;;;;;;;-0.48;100.00;100509.22;4174002;28;21942;-66
2022/04/12 04:38:39;;;;;;;80.17;37.47;;;;;;;-0.36;100.00;100510.41;4195087;28;21187;-66
2022/04/12 04:41:05;;;;;;;73.40;36.10;;;;;;;-0.33;100.00;100507.66;4184852;28;20681;-64
2022/04/12 04:43:35;;;;;;;75.07;36.83;;;;;;;-0.26;100.00;100509.06;4189335;28;20291;-64
2022/04/12 04:46:02;;;;;;;72.47;35.93;;;;;;;-0.14;100.00;100515.47;4196160;28;20314;-69
2022/04/12 04:48:29;;;;;;;78.13;39.23;;;;;;;-0.08;100.00;100509.91;4187397;28;21244;-63
2022/04/12 04:50:56;;;;;;;77.67;37.77;;;;;;;-0.09;100.00;100516.09;4178438;28;20232;-67
2022/04/12 04:53:22;;;;;;;80.93;37.17;;;;;;;-0.09;100.00;100515.25;4173167;28;20296;-65
2022/04/12 04:55:49;;;;;;;76.03;38.03;;;;;;;-0.21;100.00;100516.69;4199749;28;20242;-66
2022/04/12 04:58:16;;;;;;;75.90;37.17;;;;;;;-0.16;100.00;100516.47;4177513;28;20229;-66
2022/04/12 05:00:43;;;;;;;72.73;38.37;;;;;;;0.01;100.00;100526.09;4191844;28;20294;-65
2022/04/12 05:03:10;;;;;;;78.17;39.37;;;;;;;-0.06;100.00;100521.16;4202835;28;21160;-64
2022/04/12 05:05:36;;;;;;;79.43;37.50;;;;;;;-0.10;100.00;100524.84;4195816;28;20240;-66
2022/04/12 05:08:03;;;;;;;71.90;36.03;;;;;;;0.06;100.00;100524.09;4166278;28;20416;-67
2022/04/12 05:10:32;;;;;;;75.70;37.37;;;;;;;0.18;100.00;100532.16;4175270;28;20563;-68
2022/04/12 05:12:59;;;;;;;78.30;38.73;;;;;;;0.20;100.00;100532.09;4191250;28;20246;-65
2022/04/12 05:15:29;;;;;;;76.90;38.43;;;;;;;0.24;100.00;100540.66;4194977;28;20229;-68
2022/04/12 05:18:01;;;;;;;72.90;36.63;;;;;;;0.45;100.00;100543.97;4196829;28;20403;-65
2022/04/12 05:20:27;;;;;;;65.97;34.77;;;;;;;0.52;100.00;100545.34;4194068;28;20432;-68
2022/04/12 05:22:54;;;;;;;67.57;35.40;;;;;;;0.66;100.00;100550.72;4175058;28;20238;-67
2022/04/12 05:25:21;;;;;;;62.33;33.00;;;;;;;0.70;100.00;100554.84;4177981;28;22864;-66
2022/04/12 05:27:48;;;;;;;62.50;33.93;;;;;;;0.78;100.00;100559.72;4185596;28;20247;-65
2022/04/12 05:30:16;;;;;;;63.60;33.30;;;;;;;0.84;100.00;100560.25;4188626;28;21005;-68
2022/04/12 05:32:42;;;;;;;61.93;32.93;;;;;;;0.94;100.00;100567.63;4187378;28;21667;-65
2022/04/12 05:35:10;;;;;;;63.13;32.90;;;;;;;1.18;100.00;100565.50;4187050;28;23664;-68
2022/04/12 05:37:44;;;;;;;60.03;29.87;;;;;;;1.34;100.00;100573.38;4193482;28;20267;-66
2022/04/12 05:40:12;;;;;;;60.20;30.53;;;;;;;1.46;100.00;100577.97;4189713;28;21781;-67
2022/04/12 05:42:39;;;;;;;54.43;30.77;;;;;;;1.43;100.00;100578.13;4178371;28;20240;-67
2022/04/12 05:45:09;;;;;;;56.17;29.60;;;;;;;1.50;100.00;100579.50;4177718;28;20349;-70
2022/04/12 05:47:55;;;;;;;55.67;28.63;;;;;;;1.75;100.00;100583.38;4184226;28;21187;-69
2022/04/12 05:50:25;;;;;;;50.30;27.60;;;;;;;1.87;100.00;100583.56;4191936;28;20280;-66
2022/04/12 05:52:52;;;;;;;58.00;25.53;;;;;;;1.83;100.00;100591.69;4174746;28;20301;-64
2022/04/12 05:55:23;;;;;;;48.87;25.50;;;;;;;2.02;100.00;100592.34;4193360;28;20240;-69
2022/04/12 05:57:52;;;;;;;51.87;26.77;;;;;;;2.11;100.00;100591.81;4182836;28;20224;-67
2022/04/12 06:00:20;;;;;;;49.50;25.93;;;;;;;2.16;100.00;100598.59;4166037;28;20237;-67
2022/04/12 06:02:47;;;;;;;47.50;25.70;;;;;;;2.36;100.00;100606.16;4178247;28;20230;-66
2022/04/12 06:05:15;;;;;;;44.97;24.33;;;;;;;2.46;99.09;100603.88;4194864;28;22042;-67
2022/04/12 06:07:42;;;;;;;45.73;23.17;;;;;;;2.50;98.20;100608.81;4188846;28;20401;-66
2022/04/12 06:10:10;;;;;;;44.47;22.97;;;;;;;2.60;98.14;100609.16;4185330;28;20233;-70
2022/04/12 06:12:37;;;;;;;45.53;23.60;;;;;;;2.83;97.78;100607.78;4200792;28;20298;-70
2022/04/12 06:15:05;;;;;;;46.27;25.23;;;;;;;3.00;96.79;100622.56;4182595;28;20321;-67
2022/04/12 06:17:33;;;;;;;47.60;23.07;;;;;;;3.13;95.52;100617.41;4179046;28;21006;-70
2022/04/12 06:20:08;;;;;;;40.00;23.23;;;;;;;3.03;94.81;100619.75;4179272;28;20251;-67
2022/04/12 06:22:35;;;;;;;49.67;24.80;;;;;;;3.22;94.49;100616.84;4217305;28;20880;-66
2022/04/12 06:25:02;;;;;;;48.53;26.20;;;;;;;3.41;93.04;100615.72;4171457;28;21239;-62
2022/04/12 06:27:36;;;;;;;48.17;24.53;;;;;;;3.70;91.68;100620.03;4200786;28;20265;-68
2022/04/12 06:30:08;;;;;;;42.33;22.53;;;;;;;3.89;90.36;100618.88;4187078;28;20323;-72
2022/04/12 06:32:35;;;;;;;47.40;22.03;;;;;;;4.02;90.69;100617.97;4217139;28;20275;-64
2022/04/12 06:35:04;;;;;;;38.07;19.17;;;;;;;3.99;89.55;100633.13;4192985;28;21242;-64
2022/04/12 06:37:31;;;;;;;48.03;21.90;;;;;;;4.11;88.03;100627.06;4177140;28;21677;-64
2022/04/12 06:39:59;;;;;;;37.43;21.37;;;;;;;4.30;88.52;100631.16;4192075;28;20299;-64
2022/04/12 06:42:26;;;;;;;43.23;21.97;;;;;;;4.48;87.80;100629.94;4178887;28;20289;-67
2022/04/12 06:44:53;;;;;;;47.43;22.47;;;;;;;4.63;86.38;100633.34;4198497;28;21791;-65
2022/04/12 06:47:19;;;;;;;40.57;22.00;;;;;;;4.63;86.23;100639.44;4182192;28;20244;-62
2022/04/12 06:49:48;;;;;;;40.60;21.63;;;;;;;5.10;85.64;100644.28;4186984;28;21486;-64
2022/04/12 06:52:17;;;;;;;41.83;19.17;;;;;;;5.26;82.29;100645.75;4215100;28;20286;-64
2022/04/12 06:54:44;;;;;;;41.30;19.07;;;;;;;7.09;80.11;100656.31;4237425;28;20241;-65
2022/04/12 06:57:11;;;;;;;39.50;17.67;;;;;;;10.44;63.46;100670.19;4209572;28;20239;-64
2022/04/12 06:59:37;;;;;;;26.70;15.67;;;;;;;13.20;52.05;100677.56;4193238;28;20345;-66
2022/04/12 07:02:04;;;;;;;34.33;16.30;;;;;;;14.64;45.88;100693.81;4177545;28;20228;-63
2022/04/12 07:04:32;;;;;;;29.27;15.00;;;;;;;16.60;39.47;100692.50;4203455;28;22784;-62
2022/04/12 07:06:59;;;;;;;33.20;14.43;;;;;;;17.32;36.58;100702.06;4196027;28;21982;-63
2022/04/12 07:09:28;;;;;;;29.73;14.63;;;;;;;18.65;33.41;100703.84;4197266;28;22173;-62
2022/04/12 07:11:59;;;;;;;26.37;14.50;;;;;;;18.44;32.09;100704.66;4193183;28;20236;-63
2022/04/12 07:14:29;;;;;;;22.23;13.77;;;;;;;19.92;30.76;100711.13;4205450;28;21238;-62
2022/04/12 07:16:56;;;;;;;32.03;14.93;;;;;;;21.08;27.47;100711.94;4207116;28;20365;-65
2022/04/12 07:19:23;;;;;;;27.27;14.90;;;;;;;21.86;26.14;100719.38;4199681;28;20270;-62
2022/04/12 07:21:50;;;;;;;23.10;12.43;;;;;;;22.20;25.44;100725.53;4200119;28;20241;-61
2022/04/12 07:24:17;;;;;;;20.77;10.90;;;;;;;22.63;23.67;100724.94;4200600;28;20622;-67
2022/04/12 07:26:44;;;;;;;22.53;13.17;;;;;;;22.14;24.20;100713.66;4217812;28;20249;-68
2022/04/12 07:29:11;;;;;;;25.47;13.67;;;;;;;22.34;23.99;100713.63;4197878;28;20231;-65
2022/04/12 07:31:38;;;;;;;22.00;11.03;;;;;;;18.27;29.15;100695.97;4194258;28;20288;-66
2022/04/12 07:34:05;;;;;;;17.20;9.87;;;;;;;17.99;29.02;100693.13;4213130;28;20240;-66
2022/04/12 07:36:31;;;;;;;20.30;10.00;;;;;;;18.70;28.79;100696.00;4231037;28;21474;-63
2022/04/12 07:38:58;;;;;;;18.13;10.17;;;;;;;21.04;25.68;100710.66;4211381;28;20747;-63
2022/04/12 07:41:25;;;;;;;21.17;11.83;;;;;;;22.74;23.34;100726.97;4234800;28;22106;-65
2022/04/12 07:43:52;;;;;;;20.27;12.13;;;;;;;19.25;26.44;100716.06;4227478;28;20286;-65
2022/04/12 07:46:19;;;;;;;16.77;9.00;;;;;;;18.16;28.27;100702.66;4199920;28;20237;-66
2022/04/12 07:48:48;;;;;;;17.70;9.07;;;;;;;20.68;24.70;100710.22;4216368;28;20412;-65
2022/04/12 07:51:15;;;;;;;16.40;9.27;;;;;;;22.32;22.94;100733.84;4229160;28;22641;-66
2022/04/12 07:53:42;;;;;;;16.57;9.60;;;;;;;22.14;23.13;100729.09;4209898;28;20321;-65
2022/04/12 07:56:08;;;;;;;17.63;9.47;;;;;;;22.67;22.62;100737.03;4236112;28;21250;-62
2022/04/12 07:58:35;;;;;;;25.23;10.73;;;;;;;22.23;23.16;100735.97;4199532;28;22274;-64
2022/04/12 08:01:02;;;;;;;17.83;8.60;;;;;;;22.00;22.51;100727.47;4220253;28;20233;-65
2022/04/12 08:03:29;;;;;;;19.07;9.93;;;;;;;20.02;25.31;100720.56;4173130;28;20256;-63
2022/04/12 08:05:56;;;;;;;17.20;8.67;;;;;;;19.41;25.97;100709.56;4179089;28;22000;-67
2022/04/12 08:08:23;;;;;;;15.40;7.60;;;;;;;18.68;26.76;100701.63;4196491;28;21370;-66
2022/04/12 08:10:49;;;;;;;15.93;8.73;;;;;;;17.40;29.02;100702.81;4218011;28;20247;-65
2022/04/12 08:13:17;;;;;;;17.93;7.30;;;;;;;14.45;33.57;100689.56;4200061;28;20231;-67
2022/04/12 08:15:44;;;;;;;14.77;7.77;;;;;;;14.10;35.53;100686.13;4198952;28;20243;-64
2022/04/12 08:18:10;;;;;;;14.77;7.30;;;;;;;13.94;35.52;100682.38;4210064;28;21521;-66
2022/04/12 08:20:37;;;;;;;16.33;8.27;;;;;;;13.36;37.86;100676.88;4191388;28;20669;-63
2022/04/12 08:23:04;;;;;;;14.70;7.83;;;;;;;13.02;38.07;100674.94;4200377;28;20253;-65
2022/04/12 08:25:31;;;;;;;17.57;7.83;;;;;;;12.14;39.41;100667.56;4189230;28;23512;-65
2022/04/12 08:27:58;;;;;;;13.70;6.50;;;;;;;11.91;39.66;100674.31;4208655;28;20319;-64
2022/04/12 08:30:25;;;;;;;11.47;6.03;;;;;;;11.64;39.25;100677.78;4186932;28;21330;-63
2022/04/12 08:32:52;;;;;;;8.37;3.60;;;;;;;11.49;37.41;100672.06;4180745;28;20233;-63
2022/04/12 08:35:19;;;;;;;10.30;5.03;;;;;;;11.27;39.76;100682.06;4189660;28;26220;-65
2022/04/12 08:37:46;;;;;;;8.90;4.37;;;;;;;10.66;39.71;100677.09;4173912;28;22550;-66
2022/04/12 08:40:14;;;;;;;6.20;2.73;;;;;;;9.89;38.66;100679.41;4176328;28;21298;-64
2022/04/12 08:42:41;;;;;;;6.90;3.23;;;;;;;10.28;39.19;100670.72;4200315;28;20315;-64
2022/04/12 08:45:08;;;;;;;7.73;3.37;;;;;;;9.96;40.90;100673.56;4187172;28;20355;-63
2022/04/12 08:47:35;;;;;;;12.20;2.80;;;;;;;10.07;37.09;100674.28;4205284;28;20236;-65
2022/04/12 08:50:04;;;;;;;2.87;1.67;;;;;;;10.11;35.46;100672.19;4172994;28;20256;-63
2022/04/12 08:52:31;;;;;;;5.97;2.00;;;;;;;10.08;36.07;100670.66;4196219;28;20373;-62
2022/04/12 08:54:58;;;;;;;7.97;2.30;;;;;;;10.06;37.42;100669.09;4180717;28;20333;-65
2022/04/12 08:57:25;;;;;;;7.83;2.80;;;;;;;10.04;38.21;100671.88;4171257;28;20434;-64
2022/04/12 08:59:52;;;;;;;7.03;3.63;;;;;;;10.15;39.49;100674.44;4202152;28;20224;-66
2022/04/12 09:02:18;;;;;;;8.27;3.90;;;;;;;9.96;40.72;100669.09;4189307;28;20225;-60
2022/04/12 09:04:45;;;;;;;13.33;4.17;;;;;;;9.80;40.81;100669.56;4203605;28;20246;-63
2022/04/12 09:07:13;;;;;;;7.57;3.80;;;;;;;9.44;43.41;100668.31;4198607;28;20332;-65
2022/04/12 09:09:41;;;;;;;12.30;4.90;;;;;;;9.53;43.77;100672.84;4217319;28;20230;-59
2022/04/12 09:12:10;;;;;;;8.93;4.77;;;;;;;9.49;44.46;100677.56;4174812;28;20233;-66
2022/04/12 09:14:37;;;;;;;10.03;4.43;;;;;;;9.37;46.04;100667.16;4230192;28;20232;-67
2022/04/12 09:17:08;;;;;;;7.13;3.33;;;;;;;9.88;42.44;100675.09;4210883;28;20243;-68
2022/04/12 09:19:46;;;;;;;5.90;3.47;;;;;;;9.87;40.62;100673.38;4199731;28;20270;-67
2022/04/12 09:22:21;;;;;;;6.90;3.40;;;;;;;9.88;39.84;100668.91;4234617;28;23373;-67
2022/04/12 09:25:01;;;;;;;9.33;3.17;;;;;;;9.55;39.43;100664.72;4205679;28;20284;-66
2022/04/12 09:27:38;;;;;;;7.97;2.93;;;;;;;8.98;40.82;100666.91;4256217;28;23406;-63
2022/04/12 09:30:29;;;;;;;6.73;3.10;;;;;;;9.60;41.14;100654.53;4211321;28;25025;-67
2022/04/12 09:32:56;;;;;;;7.53;3.40;;;;;;;9.84;41.35;100660.38;4179913;28;20243;-67
2022/04/12 09:35:23;;;;;;;10.67;3.87;;;;;;;9.35;42.18;100653.16;4194167;28;20289;-68
2022/04/12 09:37:49;;;;;;;8.20;3.67;;;;;;;8.96;43.71;100656.41;4193713;28;21301;-67
2022/04/12 09:40:17;;;;;;;9.07;3.70;;;;;;;8.53;44.16;100648.53;4188669;28;21770;-66
2022/04/12 09:42:50;;;;;;;7.23;3.60;;;;;;;8.69;43.79;100653.44;4192514;28;20244;-67
2022/04/12 09:45:17;;;;;;;7.97;3.27;;;;;;;8.73;42.41;100654.84;4190527;28;20301;-68
2022/04/12 09:47:48;;;;;;;6.63;3.10;;;;;;;8.61;42.41;100648.75;4209959;28;20316;-65
2022/04/12 09:50:35;;;;;;;6.43;2.90;;;;;;;8.79;43.15;100649.03;4191061;28;20314;-66
2022/04/12 09:53:07;;;;;;;4.77;2.70;;;;;;;9.38;39.75;100653.72;4204602;28;20430;-67
2022/04/12 09:55:42;;;;;;;8.33;2.70;;;;;;;10.04;37.11;100653.28;4224702;28;20236;-66
2022/04/12 09:58:33;;;;;;;7.37;2.97;;;;;;;10.27;38.38;100650.38;4181888;28;21086;-67
2022/04/12 10:01:00;;;;;;;9.97;3.37;;;;;;;9.88;40.18;100644.97;4223972;28;20311;-65
2022/04/12 10:03:28;;;;;;;10.47;3.97;;;;;;;9.43;42.26;100653.34;4171485;28;20220;-70
2022/04/12 10:05:55;;;;;;;6.47;3.40;;;;;;;9.04;42.33;100661.09;4169371;28;21261;-65
2022/04/12 10:08:23;;;;;;;10.03;4.10;;;;;;;8.98;42.83;100650.97;4177784;28;26378;-65
2022/04/12 10:10:50;;;;;;;12.47;3.87;;;;;;;9.40;42.30;100650.94;4192570;28;20228;-67
2022/04/12 10:13:17;;;;;;;7.40;3.10;;;;;;;9.09;39.83;100654.41;4181154;28;20234;-67
2022/04/12 10:15:44;;;;;;;6.50;3.50;;;;;;;9.27;39.18;100641.38;4187816;28;20238;-65
2022/04/12 10:18:15;;;;;;;8.50;3.43;;;;;;;9.78;36.72;100644.13;4209311;28;21778;-66
2022/04/12 10:20:43;;;;;;;8.20;3.27;;;;;;;10.19;36.36;100643.09;4215636;28;21095;-67
2022/04/12 10:23:23;;;;;;;7.27;2.90;;;;;;;10.27;34.70;100640.59;4222173;28;20242;-67
2022/04/12 10:25:52;;;;;;;5.10;2.80;;;;;;;10.53;33.99;100632.09;4205507;28;20615;-68
2022/04/12 10:28:20;;;;;;;6.83;2.70;;;;;;;10.98;35.03;100620.88;4237790;28;20231;-67
2022/04/12 10:30:46;;;;;;;8.23;3.37;;;;;;;10.64;37.13;100631.13;4171296;28;20291;-65
2022/04/12 10:33:15;;;;;;;10.47;3.43;;;;;;;10.57;36.03;100630.84;4202732;28;21347;-67
2022/04/12 10:35:42;;;;;;;8.77;3.13;;;;;;;10.60;36.50;100641.19;4186028;28;21982;-68
2022/04/12 10:38:10;;;;;;;10.73;3.63;;;;;;;10.65;35.22;100644.31;4189436;28;20232;-70
2022/04/12 10:40:46;;;;;;;13.97;4.30;;;;;;;10.04;36.59;100637.31;4189378;28;20308;-66
2022/04/12 10:43:16;;;;;;;8.30;3.37;;;;;;;9.91;37.04;100639.41;4160440;28;23070;-65
2022/04/12 10:45:47;;;;;;;8.63;2.77;;;;;;;10.19;35.93;100644.94;4163223;28;20292;-65
2022/04/12 10:48:21;;;;;;;7.17;3.27;;;;;;;9.82;36.88;100650.84;4183866;28;20240;-66
2022/04/12 10:50:53;;;;;;;9.53;3.23;;;;;;;9.68;36.84;100647.56;4192602;28;21264;-66
2022/04/12 10:53:38;;;;;;;8.83;3.77;;;;;;;9.50;39.69;100628.78;4190682;28;20264;-66
2022/04/12 10:56:09;;;;;;;8.43;3.60;;;;;;;9.97;39.69;100625.56;4195430;28;20717;-65
2022/04/12 10:58:36;;;;;;;11.30;3.67;;;;;;;10.44;36.79;100622.28;4206306;28;20282;-69
2022/04/12 11:01:04;;;;;;;9.20;3.67;;;;;;;10.57;37.16;100630.84;4192682;28;22450;-64
2022/04/12 11:03:39;;;;;;;8.60;3.23;;;;;;;10.45;37.56;100624.81;4201493;28;20229;-66
2022/04/12 11:06:25;;;;;;;11.33;3.90;;;;;;;10.70;37.32;100630.56;4208653;28;20533;-68
2022/04/12 11:09:16;;;;;;;10.17;4.10;;;;;;;10.76;37.09;100624.69;4181466;28;20378;-65
2022/04/12 11:11:45;;;;;;;10.03;4.37;;;;;;;10.51;38.57;100632.25;4227047;28;22186;-64
2022/04/12 11:14:22;;;;;;;8.27;3.70;;;;;;;9.64;37.43;100637.34;4175559;28;25540;-66
2022/04/12 11:16:51;;;;;;;8.30;3.53;;;;;;;10.15;36.60;100636.38;4190457;28;20521;-65
2022/04/12 11:19:20;;;;;;;9.20;3.90;;;;;;;9.94;37.21;100634.66;4173511;28;20260;-64
2022/04/12 11:21:50;;;;;;;6.60;3.80;;;;;;;9.86;37.76;100638.97;4196168;28;25689;-67